createdAt,value
2022-11-06T00:01:37.162Z,101197.84
2022-11-06T00:04:04.016Z,101190.88
2022-11-06T00:06:48.762Z,101194.31
2022-11-06T00:09:18.619Z,101188.28
2022-11-06T00:11:45.789Z,101195.41
2022-11-06T00:14:12.459Z,101189.72
2022-11-06T00:16:40.356Z,101182.25
2022-11-06T00:19:07.440Z,101175.44
2022-11-06T00:21:34.871Z,101182.53
2022-11-06T00:24:03.914Z,101184.75
2022-11-06T00:26:31.657Z,101179.06
2022-11-06T00:28:58.356Z,101175.97
2022-11-06T00:31:30.607Z,101182.41
2022-11-06T00:33:59.061Z,101174.94
2022-11-06T00:36:27.358Z,101171.66
2022-11-06T00:38:55.400Z,101175.41
2022-11-06T00:41:23.468Z,101170.34
2022-11-06T00:43:57.520Z,101164.50
2022-11-06T00:46:24.866Z,101173.25
2022-11-06T00:48:53.340Z,101175.84
2022-11-06T00:51:23.636Z,101177.72
2022-11-06T00:53:57.923Z,101182.13
2022-11-06T00:56:25.066Z,101180.47
2022-11-06T00:58:52.057Z,101185.94
2022-11-06T01:01:26.682Z,101166.34
2022-11-06T01:04:02.025Z,101163.09
2022-11-06T01:06:31.734Z,101164.06
2022-11-06T01:08:58.516Z,101162.44
2022-11-06T01:11:46.827Z,101164.91
2022-11-06T01:14:20.959Z,101167.31
2022-11-06T01:16:48.354Z,101172.50
2022-11-06T01:19:16.969Z,101183.50
2022-11-06T01:21:45.455Z,101160.06
2022-11-06T01:24:22.046Z,101159.28
2022-11-06T01:27:12.105Z,101156.53
2022-11-06T01:29:35.741Z,101159.28
2022-11-06T01:32:03.065Z,101158.44
2022-11-06T01:34:30.001Z,101161.16
2022-11-06T01:36:56.943Z,101151.13
2022-11-06T01:39:23.507Z,101140.91
2022-11-06T01:41:52.624Z,101137.81
2022-11-06T01:44:41.049Z,101128.56
2022-11-06T01:47:23.827Z,101124.66
2022-11-06T01:49:52.807Z,101126.44
2022-11-06T01:52:20.993Z,101136.94
2022-11-06T01:54:54.427Z,101138.69
2022-11-06T01:57:21.854Z,101123.19
2022-11-06T01:59:51.387Z,101127.38
2022-11-06T02:02:18.895Z,101122.34
2022-11-06T02:04:48.579Z,101114.75
2022-11-06T02:07:16.826Z,101119.09
2022-11-06T02:09:43.887Z,101121.03
2022-11-06T02:12:18.914Z,101118.59
2022-11-06T02:15:13.089Z,101114.53
2022-11-06T02:18:07.947Z,101108.69
2022-11-06T02:21:04.383Z,101109.81
2022-11-06T02:23:45.582Z,101124.63
2022-11-06T02:26:33.524Z,101122.19
2022-11-06T02:29:06.024Z,101122.19
2022-11-06T02:31:35.982Z,101117.03
2022-11-06T02:34:12.378Z,101118.50
2022-11-06T02:36:45.681Z,101111.13
2022-11-06T02:39:17.320Z,101108.91
2022-11-06T02:41:47.908Z,101099.88
2022-11-06T02:44:20.677Z,101095.22
2022-11-06T02:46:51.821Z,101094.13
2022-11-06T02:49:44.792Z,101079.13
2022-11-06T02:52:32.040Z,101072.84
2022-11-06T02:55:15.654Z,101065.72
2022-11-06T02:57:51.695Z,101064.75
2022-11-06T03:00:18.641Z,101061.22
2022-11-06T03:02:54.316Z,101059.44
2022-11-06T03:05:36.325Z,101061.72
2022-11-06T03:08:08.703Z,101070.16
2022-11-06T03:10:46.523Z,101068.06
2022-11-06T03:13:35.766Z,101073.09
2022-11-06T03:16:16.085Z,101065.69
2022-11-06T03:19:10.494Z,101062.94
2022-11-06T03:22:07.872Z,101066.34
2022-11-06T03:25:13.579Z,101062.00
2022-11-06T03:28:07.535Z,101061.16
2022-11-06T03:30:40.562Z,101067.97
2022-11-06T03:33:23.453Z,101064.56
2022-11-06T03:36:13.982Z,101060.22
2022-11-06T03:38:46.451Z,101062.00
2022-11-06T03:41:38.841Z,101072.19
2022-11-06T03:44:09.482Z,101059.25
2022-11-06T03:46:47.182Z,101061.69
2022-11-06T03:49:19.336Z,101061.69
2022-11-06T03:51:52.512Z,101063.19
2022-11-06T03:54:48.564Z,101057.19
2022-11-06T03:57:23.138Z,101055.25
2022-11-06T03:59:58.690Z,101047.19
2022-11-06T04:02:29.662Z,101050.44
2022-11-06T04:05:02.875Z,101039.91
2022-11-06T04:07:35.187Z,101048.34
2022-11-06T04:10:24.132Z,101053.88
2022-11-06T04:13:11.133Z,101050.97
2022-11-06T04:15:52.079Z,101059.41
2022-11-06T04:18:20.288Z,101067.84
2022-11-06T04:21:24.988Z,101060.88
2022-11-06T04:24:19.157Z,101054.72
2022-11-06T04:27:17.698Z,101050.53
2022-11-06T04:30:09.769Z,101051.47
2022-11-06T04:32:59.818Z,101050.53
2022-11-06T04:35:51.303Z,101046.16
2022-11-06T04:38:36.636Z,101040.00
2022-11-06T04:41:34.632Z,101045.84
2022-11-06T04:44:19.403Z,101039.53
2022-11-06T04:46:54.308Z,101028.06
2022-11-06T04:49:22.379Z,101018.22
2022-11-06T04:51:49.521Z,101021.47
2022-11-06T04:54:16.676Z,101018.69
2022-11-06T04:56:46.275Z,101021.94
2022-11-06T04:59:16.460Z,101006.41
2022-11-06T05:01:44.020Z,101007.06
2022-11-06T05:04:11.939Z,101000.91
2022-11-06T05:06:57.503Z,101000.91
2022-11-06T05:09:24.290Z,101008.69
2022-11-06T05:11:51.237Z,101003.50
2022-11-06T05:14:17.770Z,101004.47
2022-11-06T05:16:44.321Z,100999.44
2022-11-06T05:19:10.946Z,101003.66
2022-11-06T05:21:56.296Z,100988.78
2022-11-06T05:24:22.865Z,100995.56
2022-11-06T05:26:52.250Z,100988.44
2022-11-06T05:29:21.236Z,100987.34
2022-11-06T05:31:47.766Z,100985.56
2022-11-06T05:34:14.424Z,100989.78
2022-11-06T05:36:40.985Z,100985.25
2022-11-06T05:39:07.574Z,100982.66
2022-11-06T05:41:34.315Z,100987.03
2022-11-06T05:44:01.150Z,100988.81
2022-11-06T05:46:48.851Z,100981.84
2022-11-06T05:49:14.523Z,100983.44
2022-11-06T05:51:41.312Z,100978.28
2022-11-06T05:54:07.895Z,100982.31
2022-11-06T05:56:34.552Z,100987.38
2022-11-06T05:59:01.080Z,100981.38
2022-11-06T06:01:27.848Z,100979.59
2022-11-06T06:03:57.621Z,100985.75
2022-11-06T06:06:24.266Z,100979.91
2022-11-06T06:08:50.838Z,100982.00
2022-11-06T06:11:17.383Z,100979.72
2022-11-06T06:13:44.401Z,100978.41
2022-11-06T06:16:11.024Z,100977.09
2022-11-06T06:18:37.771Z,100973.38
2022-11-06T06:21:04.533Z,100971.25
2022-11-06T06:23:31.133Z,100972.66
2022-11-06T06:25:58.746Z,100974.75
2022-11-06T06:28:25.304Z,100970.69
2022-11-06T06:30:57.197Z,100969.41
2022-11-06T06:33:26.994Z,100969.81
2022-11-06T06:35:53.726Z,100960.75
2022-11-06T06:38:20.311Z,100962.69
2022-11-06T06:40:47.142Z,100974.31
2022-11-06T06:43:13.926Z,100971.09
2022-11-06T06:45:40.628Z,100975.44
2022-11-06T06:48:07.634Z,100963.63
2022-11-06T06:50:34.298Z,100962.78
2022-11-06T06:53:01.640Z,100966.38
2022-11-06T06:55:29.421Z,100972.34
2022-11-06T06:57:57.841Z,100970.44
2022-11-06T07:00:24.837Z,100966.72
2022-11-06T07:02:51.904Z,100968.16
2022-11-06T07:05:20.220Z,100967.88
2022-11-06T07:07:47.288Z,100969.19
2022-11-06T07:10:14.331Z,100970.50
2022-11-06T07:12:40.984Z,100972.63
2022-11-06T07:15:08.395Z,100968.59
2022-11-06T07:17:36.028Z,100974.13
2022-11-06T07:20:02.577Z,100971.72
2022-11-06T07:22:36.639Z,100966.06
2022-11-06T07:25:04.959Z,100963.84
2022-11-06T07:27:31.600Z,100965.94
2022-11-06T07:30:00.404Z,100954.47
2022-11-06T07:32:27.173Z,100961.75
2022-11-06T07:34:53.852Z,100960.34
2022-11-06T07:37:20.489Z,100961.81
2022-11-06T07:39:47.059Z,100963.16
2022-11-06T07:42:13.578Z,100949.06
2022-11-06T07:44:40.231Z,100947.78
2022-11-06T07:47:06.755Z,100942.78
2022-11-06T07:49:33.375Z,100944.72
2022-11-06T07:51:59.867Z,100934.81
2022-11-06T07:54:26.569Z,100947.16
2022-11-06T07:56:53.217Z,100934.00
2022-11-06T07:59:38.283Z,100939.72
2022-11-06T08:02:06.021Z,100930.13
2022-11-06T08:04:32.719Z,100924.78
2022-11-06T08:06:59.297Z,100927.22
2022-11-06T08:09:25.934Z,100930.78
2022-11-06T08:11:52.587Z,100920.25
2022-11-06T08:14:19.106Z,100924.94
2022-11-06T08:16:45.818Z,100915.34
2022-11-06T08:19:13.442Z,100924.28
2022-11-06T08:21:40.060Z,100921.66
2022-11-06T08:24:07.262Z,100923.63
2022-11-06T08:26:34.169Z,100913.50
2022-11-06T08:29:00.734Z,100905.91
2022-11-06T08:31:27.637Z,100894.00
2022-11-06T08:33:54.467Z,100901.66
2022-11-06T08:36:21.116Z,100898.41
2022-11-06T08:38:48.660Z,100904.75
2022-11-06T08:41:15.627Z,100902.94
2022-11-06T08:43:42.108Z,100908.63
2022-11-06T08:46:10.235Z,100913.31
2022-11-06T08:48:37.202Z,100905.19
2022-11-06T08:51:05.174Z,100909.09
2022-11-06T08:53:31.772Z,100895.75
2022-11-06T08:55:58.786Z,100896.88
2022-11-06T08:58:25.669Z,100900.41
2022-11-06T09:00:52.297Z,100895.84
2022-11-06T09:03:18.924Z,100887.97
2022-11-06T09:05:46.474Z,100886.34
2022-11-06T09:08:13.860Z,100887.63
2022-11-06T09:10:42.861Z,100878.69
2022-11-06T09:13:10.124Z,100871.38
2022-11-06T09:15:37.774Z,100869.84
2022-11-06T09:18:04.599Z,100860.22
2022-11-06T09:20:31.281Z,100855.13
2022-11-06T09:23:03.275Z,100848.28
2022-11-06T09:25:30.801Z,100855.34
2022-11-06T09:27:59.719Z,100856.47
2022-11-06T09:30:28.919Z,100855.75
2022-11-06T09:32:59.921Z,100860.09
2022-11-06T09:35:28.615Z,100864.56
2022-11-06T09:37:55.255Z,100861.75
2022-11-06T09:40:31.712Z,100858.25
2022-11-06T09:43:10.468Z,100850.91
2022-11-06T09:45:39.489Z,100867.75
2022-11-06T09:50:52.054Z,100855.66
2022-11-06T09:53:23.841Z,100851.78
2022-11-06T14:55:32.776Z,100502.38
2022-11-06T14:58:14.226Z,100502.94
2022-11-06T15:08:53.825Z,100513.19
2022-11-06T15:11:29.681Z,100506.56
2022-11-06T15:14:22.663Z,100498.53
2022-11-06T15:17:09.854Z,100495.91
2022-11-06T15:19:50.899Z,100495.03
2022-11-06T15:22:35.933Z,100489.03
2022-11-06T15:25:34.785Z,100492.81
2022-11-06T15:28:13.467Z,100493.97
2022-11-06T15:30:57.840Z,100483.56
2022-11-06T15:34:12.168Z,100484.94
2022-11-06T15:36:51.019Z,100480.91
2022-11-06T15:39:29.727Z,100470.69
2022-11-06T15:42:04.760Z,100479.66
2022-11-06T15:44:31.341Z,100474.47
2022-11-06T15:46:59.187Z,100475.44
2022-11-06T15:49:32.765Z,100477.41
2022-11-06T15:52:01.942Z,100467.38
2022-11-06T15:54:31.393Z,100480.75
2022-11-06T15:57:06.880Z,100483.53
2022-11-06T15:59:33.505Z,100477.28
2022-11-06T16:02:28.874Z,100485.78
2022-11-06T16:04:55.720Z,100482.13
2022-11-06T16:07:22.421Z,100483.31
2022-11-06T16:09:56.695Z,100491.81
2022-11-06T16:12:23.338Z,100480.06
2022-11-06T16:14:56.770Z,100486.69
2022-11-06T16:17:26.931Z,100491.50
2022-11-06T16:19:56.396Z,100481.41
2022-11-06T16:22:37.788Z,100476.09
2022-11-06T16:25:07.149Z,100475.03
2022-11-06T16:27:36.521Z,100479.84
2022-11-06T16:30:11.822Z,100474.19
2022-11-06T16:32:41.174Z,100466.59
2022-11-06T16:35:40.799Z,100456.56
2022-11-06T16:38:44.218Z,100459.78
2022-11-06T16:41:43.778Z,100450.25
2022-11-06T16:44:30.784Z,100447.56
2022-11-06T16:47:05.647Z,100437.72
2022-11-06T16:49:37.743Z,100422.34
2022-11-06T16:52:24.850Z,100414.09
2022-11-06T16:55:04.381Z,100424.81
2022-11-06T16:57:36.729Z,100427.41
2022-11-06T17:00:20.439Z,100418.16
2022-11-06T17:02:55.179Z,100413.16
2022-11-06T17:05:24.151Z,100408.97
2022-11-06T17:08:05.178Z,100395.19
2022-11-06T17:10:34.909Z,100370.25
2022-11-06T17:13:10.817Z,100362.63
2022-11-06T17:15:37.757Z,100362.81
2022-11-06T17:18:04.388Z,100368.00
2022-11-06T17:20:31.119Z,100362.97
2022-11-06T17:22:57.629Z,100357.97
2022-11-06T17:25:24.473Z,100357.16
2022-11-06T17:27:51.174Z,100349.72
2022-11-06T17:30:17.719Z,100339.72
2022-11-06T17:32:44.373Z,100338.91
2022-11-06T17:35:11.037Z,100336.50
2022-11-06T17:37:37.692Z,100345.06
2022-11-06T17:40:05.220Z,100343.00
2022-11-06T17:42:32.910Z,100331.56
2022-11-06T17:45:00.712Z,100328.50
2022-11-06T17:47:27.345Z,100321.88
2022-11-06T17:49:53.976Z,100320.09
2022-11-06T17:52:21.522Z,100307.47
2022-11-06T17:54:49.278Z,100306.84
2022-11-06T17:57:21.243Z,100306.22
2022-11-06T17:59:51.038Z,100299.94
2022-11-06T18:02:30.031Z,100296.06
2022-11-06T18:05:05.971Z,100296.25
2022-11-06T18:07:33.656Z,100284.78
2022-11-06T18:10:00.213Z,100283.34
2022-11-06T18:12:27.607Z,100279.34
2022-11-06T18:14:54.392Z,100287.28
2022-11-06T18:17:21.046Z,100290.06
2022-11-06T18:19:47.652Z,100275.47
2022-11-06T18:22:15.907Z,100277.44
2022-11-06T18:24:42.449Z,100278.44
2022-11-06T18:27:09.144Z,100271.81
2022-11-06T18:29:35.850Z,100288.31
2022-11-06T18:32:02.700Z,100293.22
2022-11-06T18:34:29.472Z,100281.41
2022-11-06T18:36:56.204Z,100285.44
2022-11-06T18:39:22.774Z,100289.03
2022-11-06T18:41:49.384Z,100283.03
2022-11-06T18:44:17.958Z,100285.00
2022-11-06T18:46:46.070Z,100284.81
2022-11-06T18:49:12.837Z,100294.53
2022-11-06T18:51:40.330Z,100292.28
2022-11-06T18:54:09.769Z,100297.13
2022-11-06T18:56:38.989Z,100292.94
2022-11-06T18:59:07.707Z,100285.00
2022-11-06T19:01:35.367Z,100296.78
2022-11-06T19:04:03.912Z,100282.22
2022-11-06T19:06:31.087Z,100289.19
2022-11-06T19:09:01.020Z,100282.84
2022-11-06T19:11:27.713Z,100279.47
2022-11-06T19:13:55.520Z,100279.28
2022-11-06T19:16:22.207Z,100267.94
2022-11-06T19:21:29.893Z,100273.31
2022-11-06T19:24:05.631Z,100272.34
2022-11-06T19:26:35.190Z,100272.34
2022-11-06T19:29:02.342Z,100260.34
2022-11-06T19:31:30.202Z,100270.38
2022-11-06T19:33:58.259Z,100260.16
2022-11-06T19:36:27.945Z,100261.59
2022-11-06T19:38:54.870Z,100271.19
2022-11-06T19:41:21.490Z,100272.78
2022-11-06T19:43:48.065Z,100284.75
2022-11-06T19:46:23.394Z,100282.00
2022-11-06T19:48:50.638Z,100288.63
2022-11-06T19:51:17.535Z,100276.63
2022-11-06T19:53:44.353Z,100293.97
2022-11-06T19:56:18.948Z,100291.22
2022-11-06T19:58:45.546Z,100303.63
2022-11-06T20:01:13.427Z,100298.28
2022-11-06T20:03:40.909Z,100296.16
2022-11-06T20:06:08.725Z,100308.94
2022-11-06T20:08:37.000Z,100290.63
2022-11-06T20:11:05.563Z,100299.81
2022-11-06T20:13:36.353Z,100293.47
2022-11-06T20:16:08.609Z,100292.31
2022-11-06T20:18:35.921Z,100290.38
2022-11-06T20:21:05.729Z,100286.81
2022-11-06T20:23:33.080Z,100298.78
2022-11-06T20:25:59.976Z,100288.28
2022-11-06T20:28:26.656Z,100287.94
2022-11-06T20:30:53.759Z,100289.53
2022-11-06T20:33:20.490Z,100282.38
2022-11-06T20:35:49.288Z,100282.22
2022-11-06T20:38:16.230Z,100280.41
2022-11-06T20:40:43.412Z,100292.41
2022-11-06T20:43:10.123Z,100291.25
2022-11-06T20:45:37.549Z,100290.44
2022-11-06T20:48:05.865Z,100303.22
2022-11-06T20:50:33.795Z,100296.25
2022-11-06T20:53:00.897Z,100311.00
2022-11-06T20:55:27.564Z,100308.59
2022-11-06T20:57:54.212Z,100299.72
2022-11-06T21:00:21.409Z,100299.72
2022-11-06T21:02:48.495Z,100309.44
2022-11-06T21:05:15.257Z,100309.63
2022-11-06T21:07:42.201Z,100312.22
2022-11-06T21:10:11.095Z,100312.03
2022-11-06T21:12:38.118Z,100314.00
2022-11-06T21:15:06.463Z,100317.41
2022-11-06T21:17:33.207Z,100325.81
2022-11-06T21:20:00.121Z,100318.66
2022-11-06T21:22:26.683Z,100318.66
2022-11-06T21:24:53.254Z,100323.69
2022-11-06T21:27:20.119Z,100315.09
2022-11-06T21:29:46.707Z,100329.50
2022-11-06T21:32:14.320Z,100327.53
2022-11-06T21:34:41.010Z,100324.75
2022-11-06T21:37:09.220Z,100334.16
2022-11-06T21:39:36.684Z,100331.19
2022-11-06T21:42:04.857Z,100332.63
2022-11-06T21:44:31.757Z,100333.44
2022-11-06T21:46:58.327Z,100335.84
2022-11-06T21:49:25.879Z,100337.28
2022-11-06T21:51:52.528Z,100335.31
2022-11-06T21:54:37.856Z,100338.59
2022-11-06T21:57:04.545Z,100338.59
2022-11-06T21:59:31.287Z,100333.84
2022-11-06T22:01:59.150Z,100335.28
2022-11-06T22:04:25.992Z,100335.91
2022-11-06T22:06:52.814Z,100342.53
2022-11-06T22:09:24.879Z,100328.41
2022-11-06T22:11:53.065Z,100323.84
2022-11-06T22:14:19.596Z,100338.25
2022-11-06T22:16:47.415Z,100339.84
2022-11-06T22:19:15.398Z,100337.09
2022-11-06T22:21:42.676Z,100336.75
2022-11-06T22:24:13.656Z,100336.56
2022-11-06T22:26:40.692Z,100346.75
2022-11-06T22:29:11.086Z,100355.34
2022-11-06T22:31:37.658Z,100340.41
2022-11-06T22:34:04.358Z,100342.81
2022-11-06T22:36:30.930Z,100351.25
2022-11-06T22:38:58.967Z,100340.47
2022-11-06T22:41:25.940Z,100358.47
2022-11-06T22:43:52.984Z,100362.50
2022-11-06T22:46:23.278Z,100356.94
2022-11-06T22:48:51.389Z,100354.00
2022-11-06T22:51:23.976Z,100359.00
2022-11-06T22:53:51.632Z,100365.81
2022-11-06T22:56:19.396Z,100357.03
2022-11-06T22:58:46.297Z,100355.88
2022-11-06T23:01:13.545Z,100357.31
2022-11-06T23:03:40.621Z,100363.31
2022-11-06T23:06:09.450Z,100354.56
2022-11-06T23:08:46.744Z,100363.75
2022-11-06T23:11:17.296Z,100371.00
2022-11-06T23:13:44.565Z,100370.03
2022-11-06T23:16:13.907Z,100371.66
2022-11-06T23:18:40.522Z,100367.09
2022-11-06T23:21:15.019Z,100372.09
2022-11-06T23:23:42.729Z,100368.50
2022-11-06T23:26:17.397Z,100367.34
2022-11-06T23:28:44.706Z,100367.16
2022-11-06T23:31:13.085Z,100390.97
2022-11-06T23:33:39.778Z,100371.81
2022-11-06T23:36:11.729Z,100389.78
2022-11-06T23:38:38.788Z,100382.00
2022-11-06T23:41:29.438Z,100380.22
2022-11-06T23:43:56.862Z,100380.03
2022-11-06T23:46:26.564Z,100375.47
2022-11-06T23:48:53.553Z,100383.25
2022-11-06T23:51:21.186Z,100384.88
2022-11-06T23:53:48.915Z,100391.84
2022-11-06T23:56:17.366Z,100398.47
2022-11-06T23:58:44.572Z,100385.50
